sensor_id;sensor_type;location;lat;lon;timestamp;P1;durP1;ratioP1;P2;durP2;ratioP2
10517;SDS011;5307;42.548;22.968;2023-06-24T00:01:37;24.13;;;14.82;;
10517;SDS011;5307;42.548;22.968;2023-06-24T00:04:04;22.00;;;15.90;;
10517;SDS011;5307;42.548;22.968;2023-06-24T00:06:31;26.52;;;15.98;;
10517;SDS011;5307;42.548;22.968;2023-06-24T00:08:58;22.40;;;15.65;;
10517;SDS011;5307;42.548;22.968;2023-06-24T00:11:27;20.30;;;15.50;;
10517;SDS011;5307;42.548;22.968;2023-06-24T00:13:54;21.05;;;14.68;;
10517;SDS011;5307;42.548;22.968;2023-06-24T00:16:21;21.25;;;15.75;;
10517;SDS011;5307;42.548;22.968;2023-06-24T00:18:53;22.63;;;15.32;;
10517;SDS011;5307;42.548;22.968;2023-06-24T00:21:23;19.35;;;15.35;;
10517;SDS011;5307;42.548;22.968;2023-06-24T00:23:55;21.35;;;15.48;;
10517;SDS011;5307;42.548;22.968;2023-06-24T00:26:22;20.85;;;16.65;;
10517;SDS011;5307;42.548;22.968;2023-06-24T00:28:49;20.58;;;15.38;;
10517;SDS011;5307;42.548;22.968;2023-06-24T00:31:16;18.77;;;15.30;;
10517;SDS011;5307;42.548;22.968;2023-06-24T00:33:43;24.15;;;14.52;;
10517;SDS011;5307;42.548;22.968;2023-06-24T00:36:11;18.58;;;15.15;;
10517;SDS011;5307;42.548;22.968;2023-06-24T00:38:38;22.17;;;14.95;;
10517;SDS011;5307;42.548;22.968;2023-06-24T00:41:05;19.67;;;15.27;;
10517;SDS011;5307;42.548;22.968;2023-06-24T00:43:33;22.48;;;15.75;;
10517;SDS011;5307;42.548;22.968;2023-06-24T00:46:00;25.70;;;15.13;;
10517;SDS011;5307;42.548;22.968;2023-06-24T00:48:28;19.30;;;14.57;;
10517;SDS011;5307;42.548;22.968;2023-06-24T00:50:56;21.35;;;14.13;;
10517;SDS011;5307;42.548;22.968;2023-06-24T00:53:26;21.48;;;15.20;;
10517;SDS011;5307;42.548;22.968;2023-06-24T00:55:53;19.63;;;15.68;;
10517;SDS011;5307;42.548;22.968;2023-06-24T00:58:22;21.75;;;15.07;;
10517;SDS011;5307;42.548;22.968;2023-06-24T01:00:49;28.98;;;16.13;;
10517;SDS011;5307;42.548;22.968;2023-06-24T01:03:22;24.10;;;15.30;;
10517;SDS011;5307;42.548;22.968;2023-06-24T01:05:50;20.38;;;15.02;;
10517;SDS011;5307;42.548;22.968;2023-06-24T01:08:18;21.35;;;15.90;;
10517;SDS011;5307;42.548;22.968;2023-06-24T01:10:49;28.95;;;16.73;;
10517;SDS011;5307;42.548;22.968;2023-06-24T01:13:16;18.23;;;15.07;;
10517;SDS011;5307;42.548;22.968;2023-06-24T01:15:43;23.15;;;15.10;;
10517;SDS011;5307;42.548;22.968;2023-06-24T01:18:11;22.15;;;13.68;;
10517;SDS011;5307;42.548;22.968;2023-06-24T01:20:44;20.30;;;13.23;;
10517;SDS011;5307;42.548;22.968;2023-06-24T01:23:34;17.10;;;12.18;;
10517;SDS011;5307;42.548;22.968;2023-06-24T01:26:20;14.95;;;11.55;;
10517;SDS011;5307;42.548;22.968;2023-06-24T01:32:11;16.42;;;11.90;;
10517;SDS011;5307;42.548;22.968;2023-06-24T01:34:46;19.65;;;12.65;;
10517;SDS011;5307;42.548;22.968;2023-06-24T01:37:20;23.35;;;13.15;;
10517;SDS011;5307;42.548;22.968;2023-06-24T01:39:52;19.02;;;15.20;;
10517;SDS011;5307;42.548;22.968;2023-06-24T01:42:32;20.13;;;14.40;;
10517;SDS011;5307;42.548;22.968;2023-06-24T01:45:01;25.15;;;15.45;;
10517;SDS011;5307;42.548;22.968;2023-06-24T01:47:30;22.13;;;16.10;;
10517;SDS011;5307;42.548;22.968;2023-06-24T01:49:58;22.63;;;16.05;;
10517;SDS011;5307;42.548;22.968;2023-06-24T01:52:27;21.25;;;16.05;;
10517;SDS011;5307;42.548;22.968;2023-06-24T01:54:56;21.45;;;15.55;;
10517;SDS011;5307;42.548;22.968;2023-06-24T01:57:25;24.17;;;16.10;;
10517;SDS011;5307;42.548;22.968;2023-06-24T01:59:55;19.88;;;15.73;;
10517;SDS011;5307;42.548;22.968;2023-06-24T02:02:23;29.42;;;16.88;;
10517;SDS011;5307;42.548;22.968;2023-06-24T02:04:54;24.02;;;17.20;;
10517;SDS011;5307;42.548;22.968;2023-06-24T02:07:22;26.95;;;16.75;;
10517;SDS011;5307;42.548;22.968;2023-06-24T02:09:52;24.20;;;16.60;;
10517;SDS011;5307;42.548;22.968;2023-06-24T02:12:20;31.00;;;16.88;;
10517;SDS011;5307;42.548;22.968;2023-06-24T02:14:50;20.95;;;16.20;;
10517;SDS011;5307;42.548;22.968;2023-06-24T02:17:18;23.17;;;17.17;;
10517;SDS011;5307;42.548;22.968;2023-06-24T02:19:46;21.05;;;16.40;;
10517;SDS011;5307;42.548;22.968;2023-06-24T02:22:16;24.25;;;17.27;;
10517;SDS011;5307;42.548;22.968;2023-06-24T02:24:44;25.48;;;17.08;;
10517;SDS011;5307;42.548;22.968;2023-06-24T02:27:11;20.25;;;15.23;;
10517;SDS011;5307;42.548;22.968;2023-06-24T02:29:39;21.50;;;14.57;;
10517;SDS011;5307;42.548;22.968;2023-06-24T02:32:07;25.50;;;15.35;;
10517;SDS011;5307;42.548;22.968;2023-06-24T02:34:35;20.48;;;13.55;;
10517;SDS011;5307;42.548;22.968;2023-06-24T02:37:02;24.30;;;14.35;;
10517;SDS011;5307;42.548;22.968;2023-06-24T02:39:30;23.27;;;14.40;;
10517;SDS011;5307;42.548;22.968;2023-06-24T02:41:57;20.05;;;14.80;;
10517;SDS011;5307;42.548;22.968;2023-06-24T02:44:24;25.20;;;15.77;;
10517;SDS011;5307;42.548;22.968;2023-06-24T02:46:51;30.80;;;15.45;;
10517;SDS011;5307;42.548;22.968;2023-06-24T02:49:19;25.05;;;16.10;;
10517;SDS011;5307;42.548;22.968;2023-06-24T02:51:47;21.80;;;15.93;;
10517;SDS011;5307;42.548;22.968;2023-06-24T02:54:14;23.35;;;15.20;;
10517;SDS011;5307;42.548;22.968;2023-06-24T02:56:43;18.67;;;15.07;;
10517;SDS011;5307;42.548;22.968;2023-06-24T02:59:10;21.45;;;16.02;;
10517;SDS011;5307;42.548;22.968;2023-06-24T03:01:37;21.83;;;14.00;;
10517;SDS011;5307;42.548;22.968;2023-06-24T03:04:10;27.88;;;15.32;;
10517;SDS011;5307;42.548;22.968;2023-06-24T03:06:37;24.55;;;15.50;;
10517;SDS011;5307;42.548;22.968;2023-06-24T03:09:04;20.80;;;15.13;;
10517;SDS011;5307;42.548;22.968;2023-06-24T03:11:39;23.77;;;15.50;;
10517;SDS011;5307;42.548;22.968;2023-06-24T03:14:08;22.60;;;15.55;;
10517;SDS011;5307;42.548;22.968;2023-06-24T03:16:35;25.63;;;15.82;;
10517;SDS011;5307;42.548;22.968;2023-06-24T03:19:03;21.77;;;14.82;;
10517;SDS011;5307;42.548;22.968;2023-06-24T03:21:30;20.15;;;14.95;;
10517;SDS011;5307;42.548;22.968;2023-06-24T03:23:57;23.92;;;15.55;;
10517;SDS011;5307;42.548;22.968;2023-06-24T03:26:25;20.30;;;16.20;;
10517;SDS011;5307;42.548;22.968;2023-06-24T03:28:57;20.48;;;15.50;;
10517;SDS011;5307;42.548;22.968;2023-06-24T03:31:26;26.52;;;15.63;;
10517;SDS011;5307;42.548;22.968;2023-06-24T03:33:53;18.02;;;14.80;;
10517;SDS011;5307;42.548;22.968;2023-06-24T03:36:19;26.15;;;16.70;;
10517;SDS011;5307;42.548;22.968;2023-06-24T03:38:46;23.90;;;16.60;;
10517;SDS011;5307;42.548;22.968;2023-06-24T03:41:13;20.65;;;14.85;;
10517;SDS011;5307;42.548;22.968;2023-06-24T03:43:40;20.73;;;15.23;;
10517;SDS011;5307;42.548;22.968;2023-06-24T03:46:08;19.42;;;14.90;;
10517;SDS011;5307;42.548;22.968;2023-06-24T03:48:36;23.58;;;16.35;;
10517;SDS011;5307;42.548;22.968;2023-06-24T03:51:03;22.25;;;16.67;;
10517;SDS011;5307;42.548;22.968;2023-06-24T03:53:30;21.35;;;15.85;;
10517;SDS011;5307;42.548;22.968;2023-06-24T03:55:58;24.00;;;16.10;;
10517;SDS011;5307;42.548;22.968;2023-06-24T03:58:24;21.13;;;16.08;;
10517;SDS011;5307;42.548;22.968;2023-06-24T04:00:51;24.75;;;16.95;;
10517;SDS011;5307;42.548;22.968;2023-06-24T04:03:21;18.40;;;15.27;;
10517;SDS011;5307;42.548;22.968;2023-06-24T04:05:52;23.80;;;15.63;;
10517;SDS011;5307;42.548;22.968;2023-06-24T04:08:20;23.45;;;14.85;;
10517;SDS011;5307;42.548;22.968;2023-06-24T04:10:47;32.35;;;15.60;;
10517;SDS011;5307;42.548;22.968;2023-06-24T04:13:14;29.73;;;15.68;;
10517;SDS011;5307;42.548;22.968;2023-06-24T04:15:41;20.67;;;15.57;;
10517;SDS011;5307;42.548;22.968;2023-06-24T04:18:08;26.17;;;15.82;;
10517;SDS011;5307;42.548;22.968;2023-06-24T04:20:35;19.10;;;15.40;;
10517;SDS011;5307;42.548;22.968;2023-06-24T04:23:03;29.42;;;16.15;;
10517;SDS011;5307;42.548;22.968;2023-06-24T04:25:30;26.13;;;15.85;;
10517;SDS011;5307;42.548;22.968;2023-06-24T04:27:57;25.00;;;16.23;;
10517;SDS011;5307;42.548;22.968;2023-06-24T04:30:24;23.08;;;16.77;;
10517;SDS011;5307;42.548;22.968;2023-06-24T04:32:51;24.90;;;16.30;;
10517;SDS011;5307;42.548;22.968;2023-06-24T04:35:19;22.38;;;16.08;;
10517;SDS011;5307;42.548;22.968;2023-06-24T04:37:46;22.75;;;15.32;;
10517;SDS011;5307;42.548;22.968;2023-06-24T04:40:16;21.25;;;15.73;;
10517;SDS011;5307;42.548;22.968;2023-06-24T04:42:44;24.15;;;16.27;;
10517;SDS011;5307;42.548;22.968;2023-06-24T04:45:11;28.65;;;16.50;;
10517;SDS011;5307;42.548;22.968;2023-06-24T04:47:37;22.67;;;16.05;;
10517;SDS011;5307;42.548;22.968;2023-06-24T04:50:04;21.20;;;15.95;;
10517;SDS011;5307;42.548;22.968;2023-06-24T04:52:36;23.58;;;16.23;;
10517;SDS011;5307;42.548;22.968;2023-06-24T04:55:03;25.42;;;17.20;;
10517;SDS011;5307;42.548;22.968;2023-06-24T04:57:31;27.55;;;16.48;;
10517;SDS011;5307;42.548;22.968;2023-06-24T05:02:48;23.42;;;15.60;;
10517;SDS011;5307;42.548;22.968;2023-06-24T05:18:58;25.20;;;17.52;;
10517;SDS011;5307;42.548;22.968;2023-06-24T05:21:25;25.65;;;17.33;;
10517;SDS011;5307;42.548;22.968;2023-06-24T05:23:51;24.95;;;16.15;;
10517;SDS011;5307;42.548;22.968;2023-06-24T05:26:18;21.25;;;16.95;;
10517;SDS011;5307;42.548;22.968;2023-06-24T05:28:45;28.33;;;17.33;;
10517;SDS011;5307;42.548;22.968;2023-06-24T05:31:12;25.27;;;17.10;;
10517;SDS011;5307;42.548;22.968;2023-06-24T05:33:38;20.77;;;16.75;;
10517;SDS011;5307;42.548;22.968;2023-06-24T05:36:07;21.85;;;16.17;;
10517;SDS011;5307;42.548;22.968;2023-06-24T05:38:33;24.52;;;16.38;;
10517;SDS011;5307;42.548;22.968;2023-06-24T05:41:01;27.17;;;16.98;;
10517;SDS011;5307;42.548;22.968;2023-06-24T05:43:28;22.60;;;17.15;;
10517;SDS011;5307;42.548;22.968;2023-06-24T05:45:55;18.40;;;16.25;;
10517;SDS011;5307;42.548;22.968;2023-06-24T05:48:22;23.70;;;17.90;;
10517;SDS011;5307;42.548;22.968;2023-06-24T05:50:48;27.27;;;18.00;;
10517;SDS011;5307;42.548;22.968;2023-06-24T05:53:17;26.92;;;16.70;;
10517;SDS011;5307;42.548;22.968;2023-06-24T05:55:44;23.98;;;17.15;;
10517;SDS011;5307;42.548;22.968;2023-06-24T05:58:10;29.75;;;17.70;;
10517;SDS011;5307;42.548;22.968;2023-06-24T06:00:37;20.80;;;16.35;;
10517;SDS011;5307;42.548;22.968;2023-06-24T06:03:04;23.35;;;16.67;;
10517;SDS011;5307;42.548;22.968;2023-06-24T06:05:31;21.58;;;17.23;;
10517;SDS011;5307;42.548;22.968;2023-06-24T06:07:58;23.02;;;17.15;;
10517;SDS011;5307;42.548;22.968;2023-06-24T06:10:26;23.02;;;16.52;;
10517;SDS011;5307;42.548;22.968;2023-06-24T06:12:53;20.35;;;17.50;;
10517;SDS011;5307;42.548;22.968;2023-06-24T06:15:19;22.25;;;16.70;;
10517;SDS011;5307;42.548;22.968;2023-06-24T06:17:46;24.05;;;16.77;;
10517;SDS011;5307;42.548;22.968;2023-06-24T06:20:13;21.60;;;16.92;;
10517;SDS011;5307;42.548;22.968;2023-06-24T06:22:40;21.63;;;16.08;;
10517;SDS011;5307;42.548;22.968;2023-06-24T06:25:07;24.35;;;17.83;;
10517;SDS011;5307;42.548;22.968;2023-06-24T06:27:35;25.35;;;17.27;;
10517;SDS011;5307;42.548;22.968;2023-06-24T06:30:03;24.45;;;18.13;;
10517;SDS011;5307;42.548;22.968;2023-06-24T06:32:30;26.13;;;18.00;;
10517;SDS011;5307;42.548;22.968;2023-06-24T06:34:57;21.65;;;16.17;;
10517;SDS011;5307;42.548;22.968;2023-06-24T06:37:24;26.98;;;17.50;;
10517;SDS011;5307;42.548;22.968;2023-06-24T06:39:51;23.85;;;17.45;;
10517;SDS011;5307;42.548;22.968;2023-06-24T06:42:17;22.58;;;18.05;;
10517;SDS011;5307;42.548;22.968;2023-06-24T06:44:45;25.45;;;18.17;;
10517;SDS011;5307;42.548;22.968;2023-06-24T06:47:24;25.05;;;17.90;;
10517;SDS011;5307;42.548;22.968;2023-06-24T06:49:51;19.88;;;16.65;;
10517;SDS011;5307;42.548;22.968;2023-06-24T06:52:17;24.13;;;17.65;;
10517;SDS011;5307;42.548;22.968;2023-06-24T06:54:44;21.73;;;17.38;;
10517;SDS011;5307;42.548;22.968;2023-06-24T06:57:11;25.60;;;17.55;;
10517;SDS011;5307;42.548;22.968;2023-06-24T06:59:37;27.00;;;17.55;;
10517;SDS011;5307;42.548;22.968;2023-06-24T07:02:06;23.35;;;16.88;;
10517;SDS011;5307;42.548;22.968;2023-06-24T07:04:33;22.05;;;17.65;;
10517;SDS011;5307;42.548;22.968;2023-06-24T07:07:00;31.77;;;18.33;;
10517;SDS011;5307;42.548;22.968;2023-06-24T07:09:27;23.92;;;17.83;;
10517;SDS011;5307;42.548;22.968;2023-06-24T07:11:54;22.25;;;18.33;;
10517;SDS011;5307;42.548;22.968;2023-06-24T07:14:21;25.40;;;19.63;;
10517;SDS011;5307;42.548;22.968;2023-06-24T07:16:48;28.60;;;18.30;;
10517;SDS011;5307;42.548;22.968;2023-06-24T07:19:16;21.90;;;18.40;;
10517;SDS011;5307;42.548;22.968;2023-06-24T07:21:42;22.67;;;17.77;;
10517;SDS011;5307;42.548;22.968;2023-06-24T07:24:09;21.35;;;17.25;;
10517;SDS011;5307;42.548;22.968;2023-06-24T07:26:36;20.42;;;16.20;;
10517;SDS011;5307;42.548;22.968;2023-06-24T07:29:05;23.45;;;17.10;;
10517;SDS011;5307;42.548;22.968;2023-06-24T07:31:32;25.17;;;17.08;;
10517;SDS011;5307;42.548;22.968;2023-06-24T07:33:59;19.10;;;15.63;;
10517;SDS011;5307;42.548;22.968;2023-06-24T07:36:27;22.08;;;17.02;;
10517;SDS011;5307;42.548;22.968;2023-06-24T07:38:54;22.27;;;16.17;;
10517;SDS011;5307;42.548;22.968;2023-06-24T07:41:21;20.80;;;16.88;;
10517;SDS011;5307;42.548;22.968;2023-06-24T07:43:47;22.55;;;18.10;;
10517;SDS011;5307;42.548;22.968;2023-06-24T07:46:14;19.00;;;16.23;;
10517;SDS011;5307;42.548;22.968;2023-06-24T07:48:41;22.88;;;16.88;;
10517;SDS011;5307;42.548;22.968;2023-06-24T07:51:08;20.60;;;16.88;;
10517;SDS011;5307;42.548;22.968;2023-06-24T07:53:36;22.05;;;16.48;;
10517;SDS011;5307;42.548;22.968;2023-06-24T07:56:03;19.85;;;16.80;;
10517;SDS011;5307;42.548;22.968;2023-06-24T07:58:30;21.05;;;15.35;;
10517;SDS011;5307;42.548;22.968;2023-06-24T08:00:56;22.92;;;15.20;;
10517;SDS011;5307;42.548;22.968;2023-06-24T08:03:23;22.48;;;15.27;;
10517;SDS011;5307;42.548;22.968;2023-06-24T08:05:50;19.50;;;14.15;;
10517;SDS011;5307;42.548;22.968;2023-06-24T08:08:17;20.30;;;15.35;;
10517;SDS011;5307;42.548;22.968;2023-06-24T08:10:48;18.98;;;14.90;;
10517;SDS011;5307;42.548;22.968;2023-06-24T08:13:14;28.13;;;15.93;;
10517;SDS011;5307;42.548;22.968;2023-06-24T08:15:41;17.67;;;15.65;;
10517;SDS011;5307;42.548;22.968;2023-06-24T08:18:08;23.73;;;16.20;;
10517;SDS011;5307;42.548;22.968;2023-06-24T08:20:35;21.88;;;15.52;;
10517;SDS011;5307;42.548;22.968;2023-06-24T08:23:02;18.50;;;15.63;;
10517;SDS011;5307;42.548;22.968;2023-06-24T08:25:28;19.70;;;15.63;;
10517;SDS011;5307;42.548;22.968;2023-06-24T08:27:56;19.40;;;16.13;;
10517;SDS011;5307;42.548;22.968;2023-06-24T08:30:24;20.85;;;16.20;;
10517;SDS011;5307;42.548;22.968;2023-06-24T08:32:52;19.63;;;15.65;;
10517;SDS011;5307;42.548;22.968;2023-06-24T08:35:19;18.30;;;15.10;;
10517;SDS011;5307;42.548;22.968;2023-06-24T08:37:45;21.20;;;15.45;;
10517;SDS011;5307;42.548;22.968;2023-06-24T08:40:12;16.80;;;14.98;;
10517;SDS011;5307;42.548;22.968;2023-06-24T08:42:39;16.20;;;14.27;;
10517;SDS011;5307;42.548;22.968;2023-06-24T08:45:08;20.25;;;16.10;;
10517;SDS011;5307;42.548;22.968;2023-06-24T08:47:35;17.25;;;15.50;;
10517;SDS011;5307;42.548;22.968;2023-06-24T08:50:03;19.48;;;15.75;;
10517;SDS011;5307;42.548;22.968;2023-06-24T08:52:32;20.80;;;14.70;;
10517;SDS011;5307;42.548;22.968;2023-06-24T08:55:02;18.98;;;15.20;;
10517;SDS011;5307;42.548;22.968;2023-06-24T08:57:31;19.63;;;15.52;;
10517;SDS011;5307;42.548;22.968;2023-06-24T08:59:58;19.60;;;15.13;;
10517;SDS011;5307;42.548;22.968;2023-06-24T09:02:26;17.50;;;14.75;;
10517;SDS011;5307;42.548;22.968;2023-06-24T09:04:53;19.55;;;13.80;;
10517;SDS011;5307;42.548;22.968;2023-06-24T09:07:27;18.17;;;14.35;;
10517;SDS011;5307;42.548;22.968;2023-06-24T09:09:54;21.88;;;14.85;;
10517;SDS011;5307;42.548;22.968;2023-06-24T09:12:21;16.38;;;14.63;;
10517;SDS011;5307;42.548;22.968;2023-06-24T09:14:48;20.55;;;16.38;;
10517;SDS011;5307;42.548;22.968;2023-06-24T09:17:17;18.02;;;15.82;;
10517;SDS011;5307;42.548;22.968;2023-06-24T09:19:48;19.00;;;15.27;;
10517;SDS011;5307;42.548;22.968;2023-06-24T09:22:15;21.23;;;16.05;;
10517;SDS011;5307;42.548;22.968;2023-06-24T09:24:43;16.65;;;14.88;;
10517;SDS011;5307;42.548;22.968;2023-06-24T09:27:12;25.10;;;16.05;;
10517;SDS011;5307;42.548;22.968;2023-06-24T09:29:40;20.25;;;14.75;;
10517;SDS011;5307;42.548;22.968;2023-06-24T09:32:08;21.23;;;15.98;;
10517;SDS011;5307;42.548;22.968;2023-06-24T09:34:35;20.63;;;14.88;;
10517;SDS011;5307;42.548;22.968;2023-06-24T09:37:04;23.85;;;14.55;;
10517;SDS011;5307;42.548;22.968;2023-06-24T09:39:35;18.30;;;15.07;;
10517;SDS011;5307;42.548;22.968;2023-06-24T09:42:03;21.58;;;14.45;;
10517;SDS011;5307;42.548;22.968;2023-06-24T09:44:31;24.90;;;15.60;;
10517;SDS011;5307;42.548;22.968;2023-06-24T09:46:58;18.98;;;14.68;;
10517;SDS011;5307;42.548;22.968;2023-06-24T09:49:25;20.83;;;14.13;;
10517;SDS011;5307;42.548;22.968;2023-06-24T09:51:54;17.98;;;14.65;;
10517;SDS011;5307;42.548;22.968;2023-06-24T09:54:24;23.63;;;16.33;;
10517;SDS011;5307;42.548;22.968;2023-06-24T09:56:54;22.40;;;15.40;;
10517;SDS011;5307;42.548;22.968;2023-06-24T09:59:25;20.30;;;15.10;;
10517;SDS011;5307;42.548;22.968;2023-06-24T10:01:54;17.48;;;15.55;;
10517;SDS011;5307;42.548;22.968;2023-06-24T10:04:22;22.02;;;15.90;;
10517;SDS011;5307;42.548;22.968;2023-06-24T10:06:50;22.85;;;16.63;;
10517;SDS011;5307;42.548;22.968;2023-06-24T10:12:21;19.38;;;15.50;;
10517;SDS011;5307;42.548;22.968;2023-06-24T10:14:51;18.00;;;15.82;;
10517;SDS011;5307;42.548;22.968;2023-06-24T10:17:18;18.33;;;14.23;;
10517;SDS011;5307;42.548;22.968;2023-06-24T10:19:45;17.42;;;15.02;;
10517;SDS011;5307;42.548;22.968;2023-06-24T10:22:12;22.35;;;16.58;;
10517;SDS011;5307;42.548;22.968;2023-06-24T10:24:40;23.85;;;17.90;;
10517;SDS011;5307;42.548;22.968;2023-06-24T10:27:15;22.75;;;16.65;;
10517;SDS011;5307;42.548;22.968;2023-06-24T10:29:44;19.38;;;16.02;;
10517;SDS011;5307;42.548;22.968;2023-06-24T10:32:11;20.33;;;16.38;;
10517;SDS011;5307;42.548;22.968;2023-06-24T10:34:39;23.67;;;16.10;;
10517;SDS011;5307;42.548;22.968;2023-06-24T10:37:13;18.25;;;15.35;;
10517;SDS011;5307;42.548;22.968;2023-06-24T10:39:48;25.13;;;15.52;;
10517;SDS011;5307;42.548;22.968;2023-06-24T10:45:19;16.27;;;14.57;;
10517;SDS011;5307;42.548;22.968;2023-06-24T10:47:47;17.48;;;14.68;;
10517;SDS011;5307;42.548;22.968;2023-06-24T10:50:15;16.02;;;14.30;;
10517;SDS011;5307;42.548;22.968;2023-06-24T10:52:45;17.52;;;14.20;;
10517;SDS011;5307;42.548;22.968;2023-06-24T10:55:13;18.63;;;14.57;;
10517;SDS011;5307;42.548;22.968;2023-06-24T10:57:40;19.73;;;13.65;;
10517;SDS011;5307;42.548;22.968;2023-06-24T11:00:10;16.70;;;13.38;;
10517;SDS011;5307;42.548;22.968;2023-06-24T11:02:37;33.75;;;13.40;;
10517;SDS011;5307;42.548;22.968;2023-06-24T11:05:04;18.40;;;13.73;;
10517;SDS011;5307;42.548;22.968;2023-06-24T11:07:33;16.60;;;13.05;;
10517;SDS011;5307;42.548;22.968;2023-06-24T11:10:02;28.65;;;13.68;;
10517;SDS011;5307;42.548;22.968;2023-06-24T11:12:31;16.55;;;12.48;;
10517;SDS011;5307;42.548;22.968;2023-06-24T11:14:59;17.23;;;11.32;;
10517;SDS011;5307;42.548;22.968;2023-06-24T11:17:28;18.05;;;10.88;;
10517;SDS011;5307;42.548;22.968;2023-06-24T11:19:55;19.42;;;11.07;;
10517;SDS011;5307;42.548;22.968;2023-06-24T11:22:23;18.52;;;10.13;;
10517;SDS011;5307;42.548;22.968;2023-06-24T11:24:50;13.82;;;9.60;;
10517;SDS011;5307;42.548;22.968;2023-06-24T11:27:23;16.55;;;10.13;;
10517;SDS011;5307;42.548;22.968;2023-06-24T11:29:51;17.65;;;10.38;;
10517;SDS011;5307;42.548;22.968;2023-06-24T11:32:18;15.93;;;10.57;;
10517;SDS011;5307;42.548;22.968;2023-06-24T11:34:46;16.33;;;10.57;;
10517;SDS011;5307;42.548;22.968;2023-06-24T11:37:14;12.63;;;10.15;;
10517;SDS011;5307;42.548;22.968;2023-06-24T11:39:42;14.43;;;9.27;;
10517;SDS011;5307;42.548;22.968;2023-06-24T11:42:10;19.83;;;8.82;;
10517;SDS011;5307;42.548;22.968;2023-06-24T11:44:41;10.73;;;8.90;;
10517;SDS011;5307;42.548;22.968;2023-06-24T11:47:09;14.85;;;8.18;;
10517;SDS011;5307;42.548;22.968;2023-06-24T11:49:51;9.20;;;7.95;;
10517;SDS011;5307;42.548;22.968;2023-06-24T11:52:27;17.75;;;8.98;;
10517;SDS011;5307;42.548;22.968;2023-06-24T11:54:58;14.02;;;10.05;;
10517;SDS011;5307;42.548;22.968;2023-06-24T12:00:23;14.23;;;9.43;;
10517;SDS011;5307;42.548;22.968;2023-06-24T12:02:52;13.10;;;9.20;;
10517;SDS011;5307;42.548;22.968;2023-06-24T12:05:25;14.80;;;10.18;;
10517;SDS011;5307;42.548;22.968;2023-06-24T12:07:54;18.48;;;10.38;;
10517;SDS011;5307;42.548;22.968;2023-06-24T12:10:22;12.10;;;10.80;;
10517;SDS011;5307;42.548;22.968;2023-06-24T12:12:49;18.98;;;10.60;;
10517;SDS011;5307;42.548;22.968;2023-06-24T12:15:16;15.57;;;9.32;;
10517;SDS011;5307;42.548;22.968;2023-06-24T12:17:43;14.50;;;9.68;;
10517;SDS011;5307;42.548;22.968;2023-06-24T12:20:10;12.40;;;8.88;;
10517;SDS011;5307;42.548;22.968;2023-06-24T12:22:42;17.52;;;9.60;;
10517;SDS011;5307;42.548;22.968;2023-06-24T12:25:09;17.23;;;8.93;;
10517;SDS011;5307;42.548;22.968;2023-06-24T12:27:36;15.68;;;8.50;;
10517;SDS011;5307;42.548;22.968;2023-06-24T12:30:07;14.18;;;9.05;;
10517;SDS011;5307;42.548;22.968;2023-06-24T12:32:35;14.65;;;9.30;;
10517;SDS011;5307;42.548;22.968;2023-06-24T12:35:03;16.42;;;10.93;;
10517;SDS011;5307;42.548;22.968;2023-06-24T12:37:31;15.77;;;10.93;;
10517;SDS011;5307;42.548;22.968;2023-06-24T12:40:00;12.23;;;10.35;;
10517;SDS011;5307;42.548;22.968;2023-06-24T13:18:18;15.70;;;10.88;;
10517;SDS011;5307;42.548;22.968;2023-06-24T13:20:45;15.40;;;10.63;;
10517;SDS011;5307;42.548;22.968;2023-06-24T13:23:21;15.93;;;10.23;;
10517;SDS011;5307;42.548;22.968;2023-06-24T13:25:48;16.75;;;11.00;;
10517;SDS011;5307;42.548;22.968;2023-06-24T13:28:15;27.33;;;14.10;;
10517;SDS011;5307;42.548;22.968;2023-06-24T13:30:42;24.45;;;14.70;;
10517;SDS011;5307;42.548;22.968;2023-06-24T13:33:09;25.40;;;15.65;;
10517;SDS011;5307;42.548;22.968;2023-06-24T13:35:37;25.45;;;16.05;;
10517;SDS011;5307;42.548;22.968;2023-06-24T13:38:08;21.65;;;15.30;;
10517;SDS011;5307;42.548;22.968;2023-06-24T13:40:37;24.67;;;15.05;;
10517;SDS011;5307;42.548;22.968;2023-06-24T13:43:06;24.27;;;16.08;;
10517;SDS011;5307;42.548;22.968;2023-06-24T13:45:35;29.45;;;17.48;;
10517;SDS011;5307;42.548;22.968;2023-06-24T13:53:55;21.20;;;16.73;;
10517;SDS011;5307;42.548;22.968;2023-06-24T13:56:23;22.15;;;15.45;;
10517;SDS011;5307;42.548;22.968;2023-06-24T14:25:19;23.75;;;15.95;;
10517;SDS011;5307;42.548;22.968;2023-06-24T14:27:46;22.63;;;16.90;;
10517;SDS011;5307;42.548;22.968;2023-06-24T14:30:14;29.17;;;16.98;;
10517;SDS011;5307;42.548;22.968;2023-06-24T14:32:43;25.33;;;15.77;;
10517;SDS011;5307;42.548;22.968;2023-06-24T14:35:10;27.52;;;15.50;;
10517;SDS011;5307;42.548;22.968;2023-06-24T14:37:37;20.33;;;15.65;;
10517;SDS011;5307;42.548;22.968;2023-06-24T14:40:04;20.83;;;15.43;;
10517;SDS011;5307;42.548;22.968;2023-06-24T14:42:35;23.98;;;14.13;;
10517;SDS011;5307;42.548;22.968;2023-06-24T14:45:02;23.08;;;14.23;;
10517;SDS011;5307;42.548;22.968;2023-06-24T14:47:29;26.20;;;13.35;;
10517;SDS011;5307;42.548;22.968;2023-06-24T14:49:56;17.67;;;13.45;;
10517;SDS011;5307;42.548;22.968;2023-06-24T14:52:23;18.95;;;12.57;;
10517;SDS011;5307;42.548;22.968;2023-06-24T14:54:50;19.00;;;12.57;;
10517;SDS011;5307;42.548;22.968;2023-06-24T14:57:16;18.17;;;11.88;;
10517;SDS011;5307;42.548;22.968;2023-06-24T14:59:45;19.90;;;11.52;;
10517;SDS011;5307;42.548;22.968;2023-06-24T15:02:11;20.48;;;10.85;;
10517;SDS011;5307;42.548;22.968;2023-06-24T15:04:38;21.27;;;11.02;;
10517;SDS011;5307;42.548;22.968;2023-06-24T15:07:06;21.15;;;10.75;;
10517;SDS011;5307;42.548;22.968;2023-06-24T15:09:33;18.95;;;10.82;;
10517;SDS011;5307;42.548;22.968;2023-06-24T15:12:00;21.63;;;10.48;;
10517;SDS011;5307;42.548;22.968;2023-06-24T15:14:27;18.80;;;10.13;;
10517;SDS011;5307;42.548;22.968;2023-06-24T15:16:56;19.27;;;11.07;;
10517;SDS011;5307;42.548;22.968;2023-06-24T15:19:23;24.70;;;11.60;;
10517;SDS011;5307;42.548;22.968;2023-06-24T15:21:50;21.25;;;12.27;;
10517;SDS011;5307;42.548;22.968;2023-06-24T15:24:17;29.63;;;10.82;;
10517;SDS011;5307;42.548;22.968;2023-06-24T15:26:44;30.25;;;12.48;;
10517;SDS011;5307;42.548;22.968;2023-06-24T15:29:10;23.02;;;13.10;;
10517;SDS011;5307;42.548;22.968;2023-06-24T15:31:37;21.98;;;12.73;;
10517;SDS011;5307;42.548;22.968;2023-06-24T15:34:05;27.50;;;12.48;;
10517;SDS011;5307;42.548;22.968;2023-06-24T15:36:32;23.02;;;13.00;;
10517;SDS011;5307;42.548;22.968;2023-06-24T15:38:59;22.30;;;12.95;;
10517;SDS011;5307;42.548;22.968;2023-06-24T15:41:26;16.77;;;12.27;;
10517;SDS011;5307;42.548;22.968;2023-06-24T15:43:52;25.35;;;13.65;;
10517;SDS011;5307;42.548;22.968;2023-06-24T15:46:19;25.73;;;15.50;;
10517;SDS011;5307;42.548;22.968;2023-06-24T15:48:48;22.25;;;15.32;;
10517;SDS011;5307;42.548;22.968;2023-06-24T15:51:16;21.80;;;16.08;;
10517;SDS011;5307;42.548;22.968;2023-06-24T15:53:44;19.40;;;15.93;;
10517;SDS011;5307;42.548;22.968;2023-06-24T15:56:11;22.40;;;16.08;;
10517;SDS011;5307;42.548;22.968;2023-06-24T15:58:38;21.95;;;15.63;;
10517;SDS011;5307;42.548;22.968;2023-06-24T16:01:05;19.05;;;15.85;;
10517;SDS011;5307;42.548;22.968;2023-06-24T16:03:32;23.13;;;16.17;;